Time;durP1;ratioP1;P1;durP2;ratioP2;P2;SDS_P1;SDS_P2;PMS_P1;PMS_P2;Temp;Humidity;BMP_temperature;BMP_pressure;BME280_temperature;BME280_humidity;BME280_pressure;Samples;Min_cycle;Max_cycle;Signal;HPM_P1;HPM_P2
2021/05/25 00:01:21;;;;;;;5.45;1.08;;;512.90;1715.20;;;;;;5072861;28;20029;-75
2021/05/25 00:03:46;;;;;;;15.13;2.55;;;512.90;1689.60;;;;;;5073312;28;20037;-76
2021/05/25 00:06:12;;;;;;;7.07;1.45;;;512.90;1689.60;;;;;;5074365;28;20020;-77
2021/05/25 00:08:38;;;;;;;2.88;1.08;;;537.60;1715.20;;;;;;5073961;28;20032;-76
2021/05/25 00:11:03;;;;;;;6.68;2.85;;;537.70;1689.60;;;;;;5074253;28;20107;-76
2021/05/25 00:13:29;;;;;;;7.13;1.13;;;537.70;1689.60;;;;;;5074008;28;20461;-76
2021/05/25 00:15:55;;;;;;;13.35;1.50;;;537.70;1689.60;;;;;;5073559;28;20028;-76
2021/05/25 00:18:21;;;;;;;8.75;1.40;;;537.70;1689.60;;;;;;5073401;28;20035;-76
2021/05/25 00:20:48;;;;;;;10.35;1.45;;;537.80;1689.60;;;;;;5072813;28;20032;-76
2021/05/25 00:23:14;;;;;;;2.95;0.80;;;537.80;1689.60;;;;;;5074066;28;20074;-77
2021/05/25 00:25:41;;;;;;;10.23;1.30;;;537.90;1664.00;;;;;;5073629;28;20422;-76
2021/05/25 00:28:06;;;;;;;4.32;0.93;;;537.90;1689.60;;;;;;5072394;28;20025;-76
2021/05/25 00:30:32;;;;;;;7.97;1.70;;;537.90;1664.00;;;;;;5074431;28;20028;-76
2021/05/25 00:32:58;;;;;;;6.35;1.20;;;538.00;1664.00;;;;;;5073653;28;20119;-76
2021/05/25 00:35:26;;;;;;;9.95;1.42;;;538.00;1664.00;;;;;;5072289;28;20377;-76
2021/05/25 00:37:52;;;;;;;3.50;2.05;;;538.10;1664.00;;;;;;5072386;28;20024;-76
2021/05/25 00:40:18;;;;;;;5.07;1.02;;;538.10;1664.00;;;;;;5073294;28;20078;-76
2021/05/25 00:42:45;;;;;;;12.80;1.40;;;538.20;1664.00;;;;;;5073698;28;20057;-76
2021/05/25 00:45:13;;;;;;;10.15;1.85;;;538.20;1638.40;;;;;;5073710;28;20377;-76
2021/05/25 00:47:39;;;;;;;4.80;1.23;;;538.20;1638.40;;;;;;5072197;28;20481;-76
2021/05/25 00:50:11;;;;;;;11.98;2.50;;;538.20;1638.40;;;;;;5071525;28;20028;-76
2021/05/25 00:52:40;;;;;;;5.63;1.33;;;538.30;1638.40;;;;;;5073043;28;20375;-76
2021/05/25 00:55:08;;;;;;;7.38;1.42;;;538.30;1638.40;;;;;;5072208;28;20025;-76
2021/05/25 00:57:33;;;;;;;4.72;1.10;;;538.30;1638.40;;;;;;5071483;28;20078;-77
2021/05/25 01:00:00;;;;;;;3.80;0.95;;;538.30;1638.40;;;;;;5071749;28;20028;-76
2021/05/25 01:02:26;;;;;;;9.07;1.45;;;538.40;1664.00;;;;;;5071356;28;20108;-76
2021/05/25 01:04:52;;;;;;;7.78;1.30;;;538.40;1638.40;;;;;;5073166;28;20529;-77
2021/05/25 01:07:18;;;;;;;5.70;1.30;;;538.40;1638.40;;;;;;5073415;28;20412;-77
2021/05/25 01:09:44;;;;;;;11.45;1.25;;;538.40;1638.40;;;;;;5073059;28;20029;-76
2021/05/25 01:12:10;;;;;;;5.53;1.63;;;538.40;1664.00;;;;;;5073638;28;20024;-76
2021/05/25 01:14:45;;;;;;;5.43;1.13;;;538.50;1664.00;;;;;;5073729;28;20025;-76
2021/05/25 01:17:12;;;;;;;6.25;1.33;;;538.40;1664.00;;;;;;5073582;28;20021;-76
2021/05/25 01:19:38;;;;;;;10.90;1.83;;;538.40;1664.00;;;;;;5071905;28;20032;-76
2021/05/25 01:22:03;;;;;;;17.67;1.77;;;538.50;1664.00;;;;;;5071838;28;20496;-77
2021/05/25 01:24:33;;;;;;;9.55;1.25;;;538.50;1664.00;;;;;;5072816;28;20071;-77
2021/05/25 01:27:05;;;;;;;11.25;2.53;;;538.50;1664.00;;;;;;5072069;28;20052;-75
2021/05/25 01:29:31;;;;;;;9.73;1.70;;;538.50;1664.00;;;;;;5071754;28;20041;-76
2021/05/25 01:31:57;;;;;;;7.30;1.35;;;538.50;1664.00;;;;;;5071744;28;20040;-76
2021/05/25 01:34:23;;;;;;;10.65;1.60;;;538.40;1664.00;;;;;;5073215;28;20088;-76
2021/05/25 01:36:49;;;;;;;10.82;1.10;;;538.40;1664.00;;;;;;5071761;28;20028;-76
2021/05/25 01:39:15;;;;;;;10.65;1.30;;;538.40;1638.40;;;;;;5072914;28;20506;-76
2021/05/25 01:41:42;;;;;;;18.88;3.42;;;538.40;1638.40;;;;;;5072174;28;20048;-76
2021/05/25 01:44:08;;;;;;;8.52;1.85;;;538.40;1638.40;;;;;;5071665;28;20115;-76
2021/05/25 01:46:34;;;;;;;7.13;1.33;;;538.40;1612.80;;;;;;5071301;28;20040;-76
2021/05/25 01:49:00;;;;;;;3.00;1.55;;;538.40;1612.80;;;;;;5071260;28;20028;-76
2021/05/25 01:51:26;;;;;;;14.88;1.38;;;538.40;1612.80;;;;;;5071722;28;20027;-77
2021/05/25 01:53:51;;;;;;;6.05;1.30;;;538.40;1587.20;;;;;;5073247;28;20104;-77
2021/05/25 01:56:17;;;;;;;10.70;1.50;;;538.50;1587.20;;;;;;5072936;28;20534;-76
2021/05/25 01:58:43;;;;;;;15.85;1.77;;;538.40;1587.20;;;;;;5071309;28;20387;-76
2021/05/25 02:01:11;;;;;;;22.63;1.90;;;538.50;1561.60;;;;;;5071652;28;20032;-77
2021/05/25 02:03:38;;;;;;;22.38;1.50;;;538.50;1561.60;;;;;;5071496;28;20025;-76
2021/05/25 02:06:05;;;;;;;10.20;1.15;;;538.50;1561.60;;;;;;5072810;28;20071;-76
2021/05/25 02:08:31;;;;;;;12.25;0.98;;;538.50;1561.60;;;;;;5071053;28;20060;-76
2021/05/25 02:11:00;;;;;;;11.63;1.67;;;538.50;1561.60;;;;;;5071095;28;20028;-77
2021/05/25 02:13:28;;;;;;;15.85;1.70;;;538.50;1561.60;;;;;;5073038;28;20028;-77
2021/05/25 02:15:56;;;;;;;11.38;1.13;;;538.50;1561.60;;;;;;5076360;28;20142;-77
2021/05/25 02:18:28;;;;;;;10.38;1.83;;;538.50;1561.60;;;;;;5074982;28;20119;-77
2021/05/25 02:20:57;;;;;;;9.43;1.05;;;538.50;1587.20;;;;;;5076351;28;20028;-76
2021/05/25 02:23:23;;;;;;;27.75;1.80;;;538.50;1587.20;;;;;;5073814;28;20028;-76
2021/05/25 02:25:49;;;;;;;5.68;0.85;;;563.20;1612.80;;;;;;5076074;28;20095;-75
2021/05/25 02:28:15;;;;;;;8.27;1.08;;;563.20;1612.80;;;;;;5075966;28;20039;-75
2021/05/25 02:30:42;;;;;;;5.53;1.05;;;563.20;1612.80;;;;;;5075011;28;20479;-76
2021/05/25 02:33:17;;;;;;;9.75;1.40;;;563.20;1638.40;;;;;;5075877;28;20053;-76
2021/05/25 02:35:44;;;;;;;11.02;1.25;;;563.20;1638.40;;;;;;5075733;28;20020;-77
2021/05/25 02:38:13;;;;;;;5.82;1.17;;;563.20;1638.40;;;;;;5074753;28;20021;-77
2021/05/25 02:40:39;;;;;;;3.50;1.13;;;538.50;1612.80;;;;;;5075864;28;20027;-79
2021/05/25 02:43:05;;;;;;;9.43;1.20;;;538.50;1638.40;;;;;;5074612;28;20427;-76
2021/05/25 02:45:33;;;;;;;12.30;1.40;;;538.50;1638.40;;;;;;5075366;28;20024;-76
2021/05/25 02:47:59;;;;;;;19.65;1.10;;;538.50;1638.40;;;;;;5075783;28;20020;-76
2021/05/25 02:50:25;;;;;;;7.75;1.35;;;538.50;1638.40;;;;;;5074414;28;20051;-76
2021/05/25 02:52:53;;;;;;;6.82;0.77;;;538.50;1664.00;;;;;;5075769;28;20028;-77
2021/05/25 02:55:31;;;;;;;10.68;1.95;;;538.50;1664.00;;;;;;5074656;28;20023;-76
2021/05/25 02:57:58;;;;;;;4.40;1.30;;;538.40;1664.00;;;;;;5074026;28;20044;-76
2021/05/25 03:00:28;;;;;;;4.38;0.98;;;538.40;1664.00;;;;;;5075863;28;20056;-78
2021/05/25 03:02:55;;;;;;;2.58;1.20;;;538.40;1664.00;;;;;;5075279;28;20028;-76
2021/05/25 03:05:24;;;;;;;7.38;1.38;;;538.40;1664.00;;;;;;5072924;28;20097;-76
2021/05/25 03:07:55;;;;;;;6.75;1.10;;;538.20;1689.60;;;;;;5075162;28;20024;-76
2021/05/25 03:10:25;;;;;;;6.40;1.35;;;538.30;1689.60;;;;;;5075488;28;20044;-76
2021/05/25 03:12:51;;;;;;;5.50;1.10;;;538.20;1689.60;;;;;;5075261;28;20147;-76
2021/05/25 03:15:20;;;;;;;10.98;1.70;;;538.20;1689.60;;;;;;5074007;28;20035;-76
2021/05/25 03:17:46;;;;;;;14.02;1.30;;;538.10;1689.60;;;;;;5073685;28;20538;-77
2021/05/25 03:20:14;;;;;;;11.35;1.75;;;538.10;1715.20;;;;;;5073887;28;20024;-76
2021/05/25 03:22:40;;;;;;;9.82;1.50;;;538.10;1715.20;;;;;;5073498;28;20484;-76
2021/05/25 03:25:08;;;;;;;5.45;2.38;;;538.10;1715.20;;;;;;5074208;28;20101;-76
2021/05/25 03:27:34;;;;;;;22.42;2.20;;;538.00;1715.20;;;;;;5075078;28;20031;-76
2021/05/25 03:30:00;;;;;;;6.50;2.25;;;538.00;1740.80;;;;;;5073767;28;20036;-76
2021/05/25 03:32:26;;;;;;;11.07;1.35;;;538.00;1715.20;;;;;;5073392;28;20045;-77
2021/05/25 03:34:51;;;;;;;5.90;1.30;;;537.90;1740.80;;;;;;5074702;28;20024;-76
2021/05/25 03:37:17;;;;;;;8.27;1.05;;;537.90;1740.80;;;;;;5074793;28;20013;-76
2021/05/25 03:39:43;;;;;;;6.70;2.33;;;537.90;1740.80;;;;;;5074745;28;20021;-77
2021/05/25 03:42:09;;;;;;;5.28;1.00;;;537.80;1740.80;;;;;;5073765;28;20123;-76
2021/05/25 03:44:34;;;;;;;11.00;1.90;;;537.90;1740.80;;;;;;5056024;28;20028;-77
2021/05/25 03:47:00;;;;;;;4.50;1.42;;;537.90;1740.80;;;;;;5072547;28;20119;-76
2021/05/25 03:49:26;;;;;;;4.22;1.25;;;537.90;1740.80;;;;;;5074132;28;20028;-76
2021/05/25 03:51:51;;;;;;;8.52;1.30;;;537.90;1740.80;;;;;;5074531;28;20020;-77
2021/05/25 03:59:50;;;;;;;4.07;1.58;;;537.90;1766.40;;;;;;5074394;28;20413;-76
2021/05/25 04:02:16;;;;;;;6.63;1.45;;;537.80;1766.40;;;;;;5080001;28;20476;-76
2021/05/25 04:04:42;;;;;;;6.55;1.50;;;537.80;1766.40;;;;;;5093020;28;20032;-76
2021/05/25 04:07:08;;;;;;;10.38;1.55;;;537.90;1766.40;;;;;;5094480;28;20523;-76
2021/05/25 04:09:34;;;;;;;6.00;2.08;;;537.90;1766.40;;;;;;5094525;28;20131;-77
2021/05/25 04:11:59;;;;;;;8.20;1.42;;;537.90;1766.40;;;;;;5093890;28;20020;-77
2021/05/25 04:14:25;;;;;;;12.93;2.25;;;537.80;1792.00;;;;;;5093803;28;20035;-77
2021/05/25 04:16:51;;;;;;;3.40;1.52;;;537.80;1792.00;;;;;;5094500;28;20016;-77
2021/05/25 04:19:17;;;;;;;4.90;2.15;;;537.80;1792.00;;;;;;5094259;28;20031;-77
2021/05/25 04:21:42;;;;;;;7.28;1.48;;;537.80;1792.00;;;;;;5094304;28;20522;-77
2021/05/25 04:24:08;;;;;;;5.75;1.40;;;537.90;1792.00;;;;;;5092599;28;20063;-77
2021/05/25 04:26:34;;;;;;;12.70;2.60;;;537.90;1817.60;;;;;;5093026;28;20062;-77
2021/05/25 04:29:00;;;;;;;9.32;2.55;;;537.90;1817.60;;;;;;5092154;28;20457;-76
2021/05/25 04:31:26;;;;;;;15.57;2.20;;;538.00;1792.00;;;;;;5093482;28;20436;-77
2021/05/25 04:33:51;;;;;;;7.47;2.15;;;537.90;1817.60;;;;;;5076803;28;20047;-77
2021/05/25 04:36:18;;;;;;;10.82;2.38;;;538.00;1817.60;;;;;;5073754;28;20021;-77
2021/05/25 04:38:44;;;;;;;11.55;2.70;;;538.10;1792.00;;;;;;5073809;28;20043;-77
2021/05/25 04:41:10;;;;;;;6.13;2.30;;;538.10;1792.00;;;;;;5073834;28;20029;-77
2021/05/25 04:43:36;;;;;;;7.72;2.15;;;538.10;1792.00;;;;;;5072285;28;20035;-77
2021/05/25 04:46:02;;;;;;;11.23;2.00;;;538.10;1766.40;;;;;;5072227;28;20505;-77
2021/05/25 04:48:28;;;;;;;8.52;1.73;;;538.20;1766.40;;;;;;5072139;28;20576;-77
2021/05/25 04:50:54;;;;;;;5.72;2.20;;;538.20;1766.40;;;;;;5073788;28;20024;-77
2021/05/25 04:53:20;;;;;;;5.22;1.55;;;538.20;1766.40;;;;;;5073639;28;20046;-76
2021/05/25 04:55:45;;;;;;;6.60;1.90;;;538.30;1766.40;;;;;;5073875;28;20115;-77
2021/05/25 04:58:11;;;;;;;7.47;3.00;;;538.30;1766.40;;;;;;5073620;28;20020;-76
2021/05/25 05:00:37;;;;;;;6.18;1.30;;;538.40;1740.80;;;;;;5073904;28;20029;-77
2021/05/25 05:03:03;;;;;;;5.55;1.77;;;538.40;1740.80;;;;;;5073501;28;20039;-77
2021/05/25 05:05:29;;;;;;;7.05;1.60;;;538.50;1766.40;;;;;;5071807;28;20045;-77
2021/05/25 05:07:55;;;;;;;2.55;1.33;;;563.20;1792.00;;;;;;5073443;28;20051;-77
2021/05/25 05:10:21;;;;;;;7.88;1.95;;;563.20;1766.40;;;;;;5073257;28;20059;-76
2021/05/25 05:12:47;;;;;;;8.48;1.85;;;563.20;1766.40;;;;;;5071058;28;20052;-77
2021/05/25 05:15:14;;;;;;;5.55;2.00;;;563.30;1766.40;;;;;;5071412;28;20027;-77
2021/05/25 05:17:41;;;;;;;3.72;1.80;;;563.40;1766.40;;;;;;5070781;28;20170;-77
2021/05/25 05:20:09;;;;;;;13.75;2.45;;;563.30;1792.00;;;;;;5072090;28;20056;-77
2021/05/25 05:22:35;;;;;;;11.27;4.15;;;563.40;1817.60;;;;;;5071667;28;20131;-76
2021/05/25 05:25:01;;;;;;;8.60;3.03;;;563.40;1817.60;;;;;;5072004;28;20488;-77
2021/05/25 05:27:27;;;;;;;7.57;3.05;;;563.40;1843.20;;;;;;5072993;28;20032;-77
2021/05/25 05:29:53;;;;;;;4.45;3.90;;;563.40;1868.80;;;;;;5073122;28;20037;-77
2021/05/25 05:32:19;;;;;;;6.57;3.75;;;563.40;1894.40;;;;;;5071738;28;20071;-77
2021/05/25 05:34:45;;;;;;;4.50;3.70;;;563.40;1894.40;;;;;;5073030;28;20481;-77
2021/05/25 05:37:11;;;;;;;4.57;4.10;;;563.40;1894.40;;;;;;5071369;28;20068;-77
2021/05/25 05:39:37;;;;;;;6.22;4.53;;;563.40;1894.40;;;;;;5073223;28;20059;-77
2021/05/25 05:42:05;;;;;;;8.10;4.28;;;563.40;1894.40;;;;;;5072465;28;20055;-77
2021/05/25 05:44:31;;;;;;;4.10;3.72;;;563.40;1920.00;;;;;;5072845;28;20044;-77
2021/05/25 05:46:56;;;;;;;8.63;4.63;;;563.40;1894.40;;;;;;5072847;28;20074;-77
2021/05/25 05:49:23;;;;;;;7.15;5.03;;;563.40;1920.00;;;;;;5074460;28;20033;-77
2021/05/25 05:51:50;;;;;;;6.65;5.07;;;563.40;1920.00;;;;;;5076853;28;20384;-78
2021/05/25 05:54:16;;;;;;;7.78;4.13;;;563.40;1920.00;;;;;;5075789;28;20021;-77
2021/05/25 05:56:43;;;;;;;14.57;5.53;;;563.50;1920.00;;;;;;5076650;28;20388;-77
2021/05/25 05:59:10;;;;;;;7.22;5.63;;;563.50;1945.60;;;;;;5078137;28;20051;-79
2021/05/25 06:01:36;;;;;;;7.15;5.55;;;563.50;1920.00;;;;;;5060876;28;20039;-78
2021/05/25 06:04:01;;;;;;;7.57;5.22;;;563.50;1920.00;;;;;;5055516;28;20108;-77
2021/05/25 06:06:27;;;;;;;10.38;5.50;;;563.60;1920.00;;;;;;5056708;28;20380;-77
2021/05/25 06:08:53;;;;;;;7.03;5.68;;;563.60;1920.00;;;;;;5055466;28;20036;-77
2021/05/25 06:11:18;;;;;;;12.68;5.07;;;563.70;1920.00;;;;;;5054941;28;20033;-78
2021/05/25 06:13:44;;;;;;;11.05;5.30;;;563.70;1945.60;;;;;;5055017;28;20032;-77
2021/05/25 06:16:10;;;;;;;10.88;6.35;;;563.70;1945.60;;;;;;5056389;28;20031;-78
2021/05/25 06:18:36;;;;;;;14.23;6.97;;;563.70;1920.00;;;;;;5056454;28;20078;-77
2021/05/25 06:21:04;;;;;;;9.27;5.45;;;563.70;1920.00;;;;;;5055260;28;20568;-78
2021/05/25 06:23:30;;;;;;;6.13;5.18;;;563.70;1945.60;;;;;;5055098;28;20035;-77
2021/05/25 06:25:59;;;;;;;7.70;5.50;;;563.80;1920.00;;;;;;5056076;28;20025;-77
2021/05/25 06:28:25;;;;;;;9.48;4.80;;;563.80;1920.00;;;;;;5072172;28;20506;-77
2021/05/25 06:30:51;;;;;;;7.95;4.90;;;563.80;1920.00;;;;;;5076386;28;20037;-77
2021/05/25 06:33:16;;;;;;;8.75;5.72;;;563.80;1920.00;;;;;;5074972;28;20390;-79
2021/05/25 06:35:42;;;;;;;12.65;5.93;;;563.80;1920.00;;;;;;5073196;28;20035;-78
2021/05/25 06:38:08;;;;;;;9.02;4.75;;;563.90;1920.00;;;;;;5074117;28;20107;-81
2021/05/25 06:40:34;;;;;;;7.43;4.70;;;563.90;1894.40;;;;;;5074690;28;20477;-77
2021/05/25 06:42:59;;;;;;;11.95;5.93;;;564.00;1894.40;;;;;;5074396;28;20025;-76
2021/05/25 06:45:25;;;;;;;5.68;5.05;;;564.00;1894.40;;;;;;5074550;28;20021;-77
2021/05/25 06:47:52;;;;;;;5.28;4.75;;;564.00;1894.40;;;;;;5075543;28;20016;-77
2021/05/25 06:50:18;;;;;;;10.75;5.35;;;564.00;1894.40;;;;;;5074458;28;20070;-77
2021/05/25 06:52:44;;;;;;;12.40;4.90;;;564.10;1920.00;;;;;;5075518;28;20477;-77
2021/05/25 06:55:11;;;;;;;6.03;4.45;;;588.80;1894.40;;;;;;5075542;28;20031;-78
2021/05/25 06:57:37;;;;;;;14.88;4.60;;;588.80;1894.40;;;;;;5075313;28;20023;-77
2021/05/25 07:00:05;;;;;;;7.90;4.65;;;588.80;1868.80;;;;;;5074264;28;20028;-77
2021/05/25 07:02:31;;;;;;;9.63;4.80;;;588.80;1868.80;;;;;;5074224;28;20032;-78
2021/05/25 07:04:57;;;;;;;11.48;5.13;;;588.90;1868.80;;;;;;5075183;28;20023;-77
2021/05/25 07:07:22;;;;;;;5.88;4.45;;;588.90;1843.20;;;;;;5075437;28;20032;-78
2021/05/25 07:09:48;;;;;;;5.93;5.03;;;588.90;1843.20;;;;;;5073883;28;20024;-77
2021/05/25 07:12:14;;;;;;;12.63;5.18;;;589.00;1843.20;;;;;;5074863;28;20032;-78
2021/05/25 07:14:40;;;;;;;4.93;3.83;;;589.10;1843.20;;;;;;5073823;28;20024;-78
2021/05/25 07:17:06;;;;;;;7.63;4.53;;;589.10;1868.80;;;;;;5073871;28;20719;-78
2021/05/25 07:19:32;;;;;;;14.32;3.95;;;589.20;1843.20;;;;;;5073635;28;20027;-77
2021/05/25 07:21:59;;;;;;;4.55;4.15;;;589.10;1792.00;;;;;;5074947;28;20108;-79
2021/05/25 07:24:25;;;;;;;8.07;4.65;;;589.20;1817.60;;;;;;5075046;28;20035;-77
2021/05/25 07:26:51;;;;;;;7.90;4.15;;;589.30;1843.20;;;;;;5074323;28;20032;-80
2021/05/25 07:29:17;;;;;;;6.10;4.07;;;589.30;1817.60;;;;;;5074664;28;20555;-77
2021/05/25 07:31:43;;;;;;;6.53;3.95;;;589.40;1817.60;;;;;;5073240;28;20124;-77
2021/05/25 07:34:09;;;;;;;15.70;4.63;;;589.50;1817.60;;;;;;5073682;28;20488;-78
2021/05/25 07:36:35;;;;;;;9.25;4.20;;;589.50;1792.00;;;;;;5073530;28;20021;-78
2021/05/25 07:39:01;;;;;;;9.95;4.05;;;589.50;1792.00;;;;;;5074114;28;20029;-85
2021/05/25 07:41:26;;;;;;;11.85;4.15;;;589.60;1766.40;;;;;;5073837;28;20487;-77
2021/05/25 07:43:53;;;;;;;12.45;4.70;;;589.70;1766.40;;;;;;5074946;28;20055;-79
2021/05/25 07:46:20;;;;;;;22.40;4.57;;;589.60;1792.00;;;;;;5073421;28;20052;-74
2021/05/25 07:48:45;;;;;;;16.70;6.90;;;589.70;1792.00;;;;;;5074535;28;20028;-75
2021/05/25 07:51:11;;;;;;;669.55;73.60;;;614.40;1792.00;;;;;;5073407;28;20043;-74
2021/05/25 07:53:37;;;;;;;631.47;65.07;;;614.40;1817.60;;;;;;5074609;28;20028;-75
2021/05/25 07:56:03;;;;;;;74.72;11.05;;;614.50;1792.00;;;;;;5074504;28;20017;-74
2021/05/25 07:58:29;;;;;;;24.08;5.82;;;614.50;1766.40;;;;;;5081482;28;20024;-78
2021/05/25 08:00:55;;;;;;;19.95;6.18;;;614.60;1792.00;;;;;;5075722;28;20123;-76
2021/05/25 08:03:21;;;;;;;23.35;4.82;;;614.70;1766.40;;;;;;5072808;28;20059;-76
2021/05/25 08:05:47;;;;;;;11.82;5.13;;;614.70;1792.00;;;;;;5074458;28;20031;-81
2021/05/25 08:08:13;;;;;;;5.53;4.57;;;614.80;1792.00;;;;;;5074351;28;20043;-75
2021/05/25 08:10:38;;;;;;;11.77;5.20;;;615.00;1817.60;;;;;;5071925;28;20032;-75
2021/05/25 08:13:04;;;;;;;8.05;3.90;;;615.00;1843.20;;;;;;5074038;28;20103;-74
2021/05/25 08:15:32;;;;;;;6.65;4.30;;;615.00;1817.60;;;;;;5074120;28;20095;-74
2021/05/25 08:20:44;;;;;;;11.00;3.72;;;615.10;1817.60;;;;;;5074072;28;20066;-74
2021/05/25 08:23:11;;;;;;;7.97;3.80;;;615.10;1766.40;;;;;;5073455;28;20419;-74
2021/05/25 08:25:39;;;;;;;7.47;3.58;;;615.10;1792.00;;;;;;5073388;28;20044;-75
2021/05/25 08:28:05;;;;;;;7.63;3.17;;;615.20;1766.40;;;;;;5073625;28;20031;-74
2021/05/25 08:30:34;;;;;;;11.38;3.75;;;615.20;1766.40;;;;;;5074205;28;20464;-76
2021/05/25 08:33:00;;;;;;;12.18;3.30;;;640.00;1766.40;;;;;;5073232;28;20048;-76
2021/05/25 08:35:32;;;;;;;8.27;3.90;;;640.00;1792.00;;;;;;5073491;28;20028;-75
2021/05/25 08:37:59;;;;;;;4.15;3.45;;;640.10;1792.00;;;;;;5073524;28;20016;-74
2021/05/25 08:40:29;;;;;;;10.15;3.97;;;640.10;1766.40;;;;;;5073250;28;20020;-75
2021/05/25 08:42:55;;;;;;;4.95;3.45;;;640.20;1766.40;;;;;;5070930;28;20039;-74
2021/05/25 08:45:22;;;;;;;7.38;3.25;;;640.20;1766.40;;;;;;5072949;28;20029;-76
2021/05/25 08:47:52;;;;;;;8.65;3.83;;;640.30;1740.80;;;;;;5073454;28;20093;-75
2021/05/25 08:50:21;;;;;;;10.10;2.60;;;640.40;1740.80;;;;;;5071940;28;20471;-75
2021/05/25 08:52:47;;;;;;;11.95;3.58;;;640.50;1638.40;;;;;;5073615;28;20099;-74
2021/05/25 08:55:13;;;;;;;11.43;2.95;;;640.40;1587.20;;;;;;5073154;28;20031;-74
2021/05/25 08:57:39;;;;;;;8.85;2.75;;;640.40;1612.80;;;;;;5073379;28;20021;-75
2021/05/25 09:00:08;;;;;;;7.95;2.63;;;640.60;1587.20;;;;;;5073484;28;20027;-75
2021/05/25 09:02:34;;;;;;;11.00;2.63;;;640.60;1587.20;;;;;;5071687;28;20023;-76
2021/05/25 09:05:20;;;;;;;5.38;2.45;;;640.70;1612.80;;;;;;5072312;28;20052;-74
2021/05/25 09:07:49;;;;;;;6.80;2.42;;;640.70;1561.60;;;;;;5072197;28;20024;-74
2021/05/25 09:10:22;;;;;;;9.48;2.47;;;640.80;1587.20;;;;;;5071955;28;20030;-77
2021/05/25 09:12:52;;;;;;;13.32;3.30;;;640.90;1536.00;;;;;;5072381;28;20080;-75
2021/05/25 09:15:40;;;;;;;4.85;2.33;;;640.90;1536.00;;;;;;5072080;28;20117;-76
2021/05/25 09:18:09;;;;;;;11.13;2.70;;;640.90;1536.00;;;;;;5071382;28;20146;-77
2021/05/25 09:20:46;;;;;;;6.90;2.97;;;640.90;1510.40;;;;;;5067585;28;20027;-78
2021/05/25 09:23:15;;;;;;;13.27;2.40;;;665.60;1561.60;;;;;;5074122;28;20017;-76
2021/05/25 09:26:03;;;;;;;6.40;2.35;;;665.70;1510.40;;;;;;5074882;28;20024;-79
2021/05/25 09:28:29;;;;;;;7.10;1.98;;;665.70;1536.00;;;;;;5055618;28;20041;-76
2021/05/25 09:30:55;;;;;;;9.60;2.35;;;665.70;1510.40;;;;;;5054969;28;20374;-77
2021/05/25 09:33:21;;;;;;;15.70;2.60;;;665.80;1536.00;;;;;;5056850;28;20052;-77
2021/05/25 09:35:49;;;;;;;9.80;2.33;;;665.90;1536.00;;;;;;5072686;28;20021;-77
2021/05/25 09:38:18;;;;;;;3.25;1.98;;;665.90;1536.00;;;;;;5073985;28;20033;-76
2021/05/25 09:40:49;;;;;;;10.35;2.40;;;665.90;1536.00;;;;;;5076712;28;20099;-76
2021/05/25 09:43:23;;;;;;;9.85;3.47;;;666.00;1561.60;;;;;;5077022;28;20095;-76
2021/05/25 09:46:10;;;;;;;10.18;2.22;;;665.90;1536.00;;;;;;5075459;28;20040;-75
2021/05/25 09:48:41;;;;;;;9.35;2.40;;;666.00;1536.00;;;;;;5076865;28;20025;-75
2021/05/25 09:51:28;;;;;;;5.22;1.90;;;666.10;1561.60;;;;;;5076765;28;20017;-76
2021/05/25 09:53:56;;;;;;;6.57;2.63;;;666.10;1510.40;;;;;;5075495;28;20016;-75
2021/05/25 09:56:26;;;;;;;11.93;2.42;;;666.10;1561.60;;;;;;5075506;28;20028;-77
2021/05/25 09:58:54;;;;;;;16.10;2.80;;;666.10;1561.60;;;;;;5074897;28;20074;-75
2021/05/25 10:01:30;;;;;;;6.97;2.63;;;666.20;1561.60;;;;;;5076717;28;20021;-75
2021/05/25 10:03:56;;;;;;;11.48;3.22;;;666.20;1561.60;;;;;;5075646;28;20028;-76
2021/05/25 10:06:24;;;;;;;12.65;2.90;;;666.40;1561.60;;;;;;5076101;28;20043;-75
2021/05/25 10:08:52;;;;;;;16.17;3.75;;;666.40;1561.60;;;;;;5073874;28;20115;-76
2021/05/25 10:11:19;;;;;;;7.28;2.60;;;666.40;1561.60;;;;;;5076127;28;20020;-76
2021/05/25 10:13:46;;;;;;;9.05;2.90;;;666.40;1536.00;;;;;;5075046;28;20536;-76
2021/05/25 10:16:13;;;;;;;7.82;2.58;;;666.50;1536.00;;;;;;5074813;28;20033;-76
2021/05/25 10:21:10;;;;;;;11.32;3.22;;;666.50;1561.60;;;;;;5076317;28;20028;-77
2021/05/25 10:23:36;;;;;;;9.00;2.63;;;691.20;1587.20;;;;;;5074842;28;20064;-75
2021/05/25 10:26:06;;;;;;;5.78;2.50;;;691.30;1536.00;;;;;;5076231;28;20024;-76
2021/05/25 10:28:32;;;;;;;28.85;3.10;;;691.20;1484.80;;;;;;5074832;28;20039;-75
2021/05/25 10:30:58;;;;;;;13.68;3.17;;;691.30;1536.00;;;;;;5074442;28;20028;-75
2021/05/25 10:33:26;;;;;;;9.70;2.88;;;691.30;1536.00;;;;;;5075689;28;20051;-75
2021/05/25 10:36:09;;;;;;;8.73;2.10;;;691.30;1510.40;;;;;;5074860;28;20024;-76
2021/05/25 10:38:53;;;;;;;25.08;3.75;;;691.40;1510.40;;;;;;5075912;28;20025;-76
2021/05/25 10:41:35;;;;;;;17.55;2.65;;;691.30;1510.40;;;;;;5076046;28;20025;-76
2021/05/25 10:44:02;;;;;;;12.60;3.22;;;691.30;1510.40;;;;;;5075579;28;20032;-75
2021/05/25 10:46:30;;;;;;;12.82;2.55;;;691.20;1536.00;;;;;;5074326;28;20071;-76
2021/05/25 10:51:51;;;;;;;9.18;2.97;;;691.40;1536.00;;;;;;5074979;28;20103;-75
2021/05/25 10:54:47;;;;;;;7.82;2.25;;;691.50;1510.40;;;;;;5075644;28;20051;-76
2021/05/25 10:57:35;;;;;;;11.13;2.72;;;691.60;1536.00;;;;;;5069680;28;20028;-74
2021/05/25 11:00:41;;;;;;;13.50;2.92;;;691.60;1561.60;;;;;;5075602;28;20021;-76
2021/05/25 11:03:13;;;;;;;11.43;2.58;;;691.50;1484.80;;;;;;5033396;28;20041;-75
2021/05/25 11:05:40;;;;;;;9.85;2.50;;;691.60;1484.80;;;;;;5068177;28;20769;-76
2021/05/25 11:08:09;;;;;;;17.45;3.00;;;691.50;1484.80;;;;;;5075248;28;20024;-76
2021/05/25 11:10:43;;;;;;;8.05;2.30;;;691.60;1484.80;;;;;;5075377;28;20484;-76
2021/05/25 11:13:19;;;;;;;8.15;2.50;;;691.60;1484.80;;;;;;5075569;28;20423;-78
2021/05/25 11:16:10;;;;;;;6.63;2.78;;;691.60;1510.40;;;;;;5075433;28;20158;-75
2021/05/25 11:24:42;;;;;;;7.32;2.95;;;691.60;1484.80;;;;;;5075221;28;20112;-76
2021/05/25 11:27:16;;;;;;;7.90;2.40;;;691.50;1459.20;;;;;;5075117;28;20369;-76
2021/05/25 11:29:52;;;;;;;9.52;2.15;;;691.60;1510.40;;;;;;5074859;28;20380;-76
2021/05/25 11:32:26;;;;;;;8.50;2.10;;;691.60;1459.20;;;;;;5073359;28;20488;-76
2021/05/25 11:34:55;;;;;;;8.65;2.42;;;691.70;1459.20;;;;;;5073570;28;20047;-76
2021/05/25 11:37:21;;;;;;;4.07;1.77;;;691.60;1433.60;;;;;;5078598;28;20016;-76
2021/05/25 11:39:47;;;;;;;6.75;2.03;;;691.60;1459.20;;;;;;5077693;28;20132;-77
2021/05/25 11:42:13;;;;;;;5.97;2.70;;;691.70;1459.20;;;;;;5074923;28;20080;-76
2021/05/25 11:44:44;;;;;;;9.38;2.60;;;691.80;1433.60;;;;;;5074751;28;20027;-75
2021/05/25 11:47:11;;;;;;;12.18;2.38;;;691.90;1433.60;;;;;;5074050;28;20051;-76
2021/05/25 11:49:41;;;;;;;7.35;2.17;;;691.90;1459.20;;;;;;5074772;28;20021;-76
2021/05/25 11:52:26;;;;;;;10.85;2.10;;;692.00;1459.20;;;;;;5073476;28;20032;-76
2021/05/25 11:55:15;;;;;;;2.88;1.63;;;692.10;1408.00;;;;;;5074550;28;20021;-75
2021/05/25 11:57:45;;;;;;;7.47;2.38;;;692.10;1433.60;;;;;;5059786;28;20028;-76
2021/05/25 12:00:23;;;;;;;13.82;2.20;;;716.80;1433.60;;;;;;5073280;28;20044;-76
2021/05/25 12:02:52;;;;;;;8.55;2.13;;;716.90;1459.20;;;;;;5073995;28;20552;-75
2021/05/25 12:05:28;;;;;;;10.40;2.15;;;716.80;1459.20;;;;;;5073869;28;20087;-76
2021/05/25 12:07:56;;;;;;;12.07;3.00;;;716.80;1408.00;;;;;;5073732;28;20484;-76
2021/05/25 12:10:24;;;;;;;6.70;2.53;;;716.80;1382.40;;;;;;5071773;28;20405;-77
2021/05/25 12:12:51;;;;;;;8.85;2.15;;;717.00;1408.00;;;;;;5072988;28;20035;-77
2021/05/25 12:15:22;;;;;;;10.10;2.03;;;717.00;1408.00;;;;;;5072491;28;20024;-77
2021/05/25 12:17:54;;;;;;;7.55;2.50;;;717.10;1433.60;;;;;;5055929;28;20506;-76
2021/05/25 12:20:22;;;;;;;8.32;2.65;;;717.30;1459.20;;;;;;5067076;28;20055;-76
2021/05/25 12:22:53;;;;;;;11.45;1.88;;;717.40;1408.00;;;;;;5072723;28;20028;-77
2021/05/25 12:25:23;;;;;;;4.47;1.98;;;717.60;1433.60;;;;;;5073633;28;20468;-77
2021/05/25 12:27:51;;;;;;;8.38;2.17;;;717.60;1433.60;;;;;;5072700;28;20484;-77
2021/05/25 12:30:19;;;;;;;7.50;3.00;;;717.60;1382.40;;;;;;5073878;28;20020;-77
2021/05/25 12:32:47;;;;;;;8.32;2.78;;;717.70;1408.00;;;;;;5073393;28;20044;-77
2021/05/25 12:35:14;;;;;;;16.85;2.50;;;717.70;1382.40;;;;;;5071557;28;20066;-77
2021/05/25 12:37:41;;;;;;;10.23;2.03;;;717.70;1382.40;;;;;;5073293;28;20013;-76